Decoded Metar for K2C8 ( in ) (IATA:) | Meteo·Mobile Aviation Weather
aviador You're here:

K2C8 Decoded Metar

in
Report Time2019-11-16 01:55:00
UTC Time2019-11-16 02:06:31
Flight Rules vfr VFR
Wind140° at 10 kt
Visibility9999 m
Phenomena:N/A
Clouds:N/A
Expected CloudBase > 2,400 ft AGL from Temp-Dew spread
CeilingNone
Temp-3°C
Dew Point-9°C (64% RH)
AAT-9.6°C
QNH1020 hPa
Raw Report
K2C8 160155Z AUTO 14010KT 10SM CLR M03/M09 A3013 RMK AO2=

Extra information for K2C8:More info

Social comments